createdAt,value
2023-02-05T00:00:15.358Z,2.57
2023-02-05T00:05:19.513Z,2.27
2023-02-05T00:10:22.269Z,2.23
2023-02-05T00:15:25.027Z,1.50
2023-02-05T00:20:29.533Z,1.80
2023-02-05T00:25:32.645Z,1.80
2023-02-05T00:30:35.686Z,1.80
2023-02-05T00:35:39.768Z,2.20
2023-02-05T00:40:42.523Z,1.53
2023-02-05T00:45:45.290Z,1.80
2023-02-05T00:50:50.720Z,1.70
2023-02-05T00:55:53.548Z,2.23
2023-02-05T01:00:58.936Z,2.23
2023-02-05T01:06:03.240Z,2.10
2023-02-05T01:11:10.187Z,2.17
2023-02-05T01:16:12.946Z,3.43
2023-02-05T01:21:16.992Z,3.67
2023-02-05T01:26:19.827Z,2.70
2023-02-05T01:31:23.578Z,2.17
2023-02-05T01:36:27.689Z,2.03
2023-02-05T01:41:30.450Z,2.30
2023-02-05T01:46:33.303Z,3.00
2023-02-05T01:51:39.043Z,1.93
2023-02-05T01:56:46.117Z,2.53
2023-02-05T02:01:49.178Z,2.07
2023-02-05T02:06:53.251Z,1.97
2023-02-05T02:11:57.398Z,2.37
2023-02-05T02:17:02.889Z,2.23
2023-02-05T02:22:23.971Z,2.40
2023-02-05T02:27:41.897Z,2.00
2023-02-05T02:32:53.143Z,2.43
2023-02-05T02:38:02.313Z,2.27
2023-02-05T02:43:11.147Z,2.40
2023-02-05T02:48:16.044Z,2.37
2023-02-05T02:53:24.386Z,2.63
2023-02-05T02:58:33.811Z,2.37
2023-02-05T03:03:41.545Z,2.60
2023-02-05T03:08:51.499Z,3.03
2023-02-05T03:13:56.563Z,2.40
2023-02-05T03:18:59.819Z,2.50
2023-02-05T03:24:02.491Z,2.50
2023-02-05T03:29:09.572Z,2.53
2023-02-05T03:34:26.896Z,2.40
2023-02-05T03:39:41.674Z,2.23
2023-02-05T03:45:18.761Z,2.60
2023-02-05T03:50:27.727Z,2.50
2023-02-05T03:55:35.072Z,2.27
2023-02-05T04:00:40.712Z,2.40
2023-02-05T04:05:43.578Z,1.90
2023-02-05T04:10:46.248Z,2.43
2023-02-05T04:15:53.216Z,2.23
2023-02-05T04:20:55.901Z,2.57
2023-02-05T04:25:58.648Z,2.67
2023-02-05T04:31:02.822Z,2.73
2023-02-05T04:36:06.517Z,2.87
2023-02-05T04:41:09.247Z,2.40
2023-02-05T04:46:13.486Z,2.23
2023-02-05T04:51:17.222Z,2.50
2023-02-05T04:56:19.939Z,2.47
2023-02-05T05:01:24.750Z,2.30
2023-02-05T05:06:27.475Z,2.37
2023-02-05T05:11:30.143Z,2.37
2023-02-05T05:16:34.224Z,2.27
2023-02-05T05:21:37.070Z,2.53
2023-02-05T05:26:43.764Z,1.80
2023-02-05T05:31:47.855Z,2.30
2023-02-05T05:36:50.534Z,2.23
2023-02-05T05:42:10.700Z,2.37
2023-02-05T05:47:14.728Z,1.90
2023-02-05T05:52:17.487Z,2.20
2023-02-05T05:57:20.979Z,2.47
2023-02-05T06:02:25.122Z,2.30
2023-02-05T06:07:28.523Z,2.40
2023-02-05T06:12:31.265Z,1.90
2023-02-05T06:17:35.333Z,2.53
2023-02-05T06:22:37.987Z,2.63
2023-02-05T06:27:40.641Z,2.23
2023-02-05T06:32:44.596Z,2.07
2023-02-05T06:37:47.939Z,2.10
2023-02-05T06:42:50.636Z,1.97
2023-02-05T06:47:56.062Z,2.07
2023-02-05T06:52:58.735Z,1.77
2023-02-05T06:58:01.455Z,1.80
2023-02-05T07:03:05.653Z,1.70
2023-02-05T07:08:08.373Z,1.70
2023-02-05T07:13:11.091Z,2.10
2023-02-05T07:18:15.306Z,1.83
2023-02-05T07:23:17.912Z,2.00
2023-02-05T07:28:20.560Z,1.80
2023-02-05T07:33:24.589Z,1.40
2023-02-05T07:38:27.372Z,1.60
2023-02-05T07:43:30.049Z,1.97
2023-02-05T07:48:34.725Z,1.90
2023-02-05T07:53:37.671Z,1.73
2023-02-05T07:58:40.406Z,1.43
2023-02-05T08:03:44.611Z,1.57
2023-02-05T08:08:47.377Z,1.30
2023-02-05T08:13:50.142Z,1.80
2023-02-05T08:18:54.178Z,1.60
2023-02-05T08:23:58.502Z,1.70
2023-02-05T08:29:01.176Z,1.93
2023-02-05T08:34:05.536Z,1.50
2023-02-05T08:39:08.484Z,1.30
2023-02-05T08:44:11.217Z,1.23
2023-02-05T08:49:16.844Z,1.60
2023-02-05T08:54:19.669Z,1.57
2023-02-05T08:59:22.792Z,1.70
2023-02-05T09:04:26.841Z,2.13
2023-02-05T09:09:30.601Z,2.23
2023-02-05T09:14:36.257Z,1.77
2023-02-05T09:19:42.214Z,1.50
2023-02-05T09:24:44.928Z,1.90
2023-02-05T09:29:47.636Z,1.57
2023-02-05T09:34:51.609Z,1.90
2023-02-05T09:45:41.435Z,2.23
2023-02-05T09:50:45.639Z,1.50
2023-02-05T09:55:49.001Z,1.80
2023-02-05T10:00:56.113Z,2.27
2023-02-05T10:06:25.474Z,1.80
2023-02-05T10:11:35.163Z,1.80
2023-02-05T10:16:56.861Z,1.60
2023-02-05T10:22:11.876Z,1.57
2023-02-05T10:27:20.290Z,1.30
2023-02-05T10:32:24.407Z,1.37
2023-02-05T10:37:37.728Z,1.20
2023-02-05T10:42:45.099Z,1.10
2023-02-05T10:48:04.578Z,1.30
2023-02-05T10:53:08.661Z,1.00
2023-02-05T10:58:36.486Z,1.00
2023-02-05T11:03:40.706Z,1.53
2023-02-05T11:08:45.322Z,1.17
2023-02-05T11:13:52.414Z,1.07
2023-02-05T11:19:01.790Z,1.53
2023-02-05T11:24:06.213Z,1.17
2023-02-05T11:29:20.445Z,1.20
2023-02-05T11:34:23.322Z,1.23
2023-02-05T11:39:35.913Z,1.20
2023-02-05T11:44:48.380Z,1.40
2023-02-05T11:49:52.151Z,1.40
2023-02-05T11:54:56.368Z,1.40
2023-02-05T12:00:01.009Z,1.27
2023-02-05T12:05:18.168Z,1.20
2023-02-05T12:10:29.634Z,1.53
2023-02-05T12:15:37.947Z,1.40
2023-02-05T12:20:46.063Z,1.47
2023-02-05T12:26:01.689Z,1.37
2023-02-05T12:31:16.635Z,1.73
2023-02-05T12:36:38.968Z,1.40
2023-02-05T12:41:56.650Z,1.23
2023-02-05T12:47:09.882Z,1.20
2023-02-05T12:52:22.607Z,1.37
2023-02-05T12:57:31.521Z,1.60
2023-02-05T13:02:39.718Z,1.93
2023-02-05T13:07:46.362Z,1.20
2023-02-05T13:12:53.949Z,1.70
2023-02-05T13:18:01.750Z,1.50
2023-02-05T13:23:22.238Z,2.20
2023-02-05T13:28:43.577Z,2.00
2023-02-05T13:33:46.675Z,1.43
2023-02-05T13:39:14.185Z,1.60
2023-02-05T13:45:14.879Z,1.30
2023-02-05T13:50:40.732Z,1.60
2023-02-05T13:56:21.969Z,2.03
2023-02-05T14:01:35.309Z,1.50
2023-02-05T14:06:44.158Z,1.50
2023-02-05T14:11:55.955Z,1.30
2023-02-05T14:18:02.893Z,1.30
2023-02-05T14:23:17.206Z,1.33
2023-02-05T14:28:41.414Z,1.10
2023-02-05T14:33:45.899Z,1.50
2023-02-05T14:39:03.617Z,1.27
2023-02-05T14:44:20.179Z,1.40
2023-02-05T14:49:32.190Z,1.77
2023-02-05T14:55:00.367Z,1.30
2023-02-05T15:00:07.168Z,1.30
2023-02-05T15:05:20.601Z,1.37
2023-02-05T15:10:35.198Z,1.77
2023-02-05T15:15:47.921Z,5.33
2023-02-05T15:20:57.982Z,1.60
2023-02-05T15:26:05.457Z,1.80
2023-02-05T15:31:22.630Z,1.87
2023-02-05T15:36:35.039Z,1.90
2023-02-05T15:41:40.233Z,3.00
2023-02-05T15:46:43.684Z,3.23
2023-02-05T15:51:48.876Z,11.50
2023-02-05T15:56:54.897Z,6.90
2023-02-05T16:02:03.951Z,6.67
2023-02-05T16:07:25.681Z,3.40
2023-02-05T16:12:39.429Z,3.63
2023-02-05T16:17:47.873Z,2.60
2023-02-05T16:22:57.109Z,2.30
2023-02-05T16:28:10.113Z,2.30
2023-02-05T16:33:29.307Z,2.70
2023-02-05T16:38:34.942Z,3.00
2023-02-05T16:43:44.453Z,2.87
2023-02-05T16:49:14.728Z,3.10
2023-02-05T16:54:40.152Z,3.27
2023-02-05T16:59:53.258Z,3.70
2023-02-05T17:05:04.268Z,6.13
2023-02-05T17:10:21.233Z,7.93
2023-02-05T17:15:36.860Z,5.70
2023-02-05T17:20:39.577Z,6.00
2023-02-05T17:25:51.622Z,6.50
2023-02-05T17:30:57.637Z,7.63
2023-02-05T17:36:00.392Z,8.60
2023-02-05T17:41:33.601Z,8.70
2023-02-05T17:46:36.275Z,8.40
2023-02-05T17:51:42.276Z,8.30
2023-02-05T17:56:48.348Z,6.70
2023-02-05T18:01:52.295Z,6.40
2023-02-05T18:06:55.055Z,8.23
2023-02-05T18:11:59.108Z,7.30
2023-02-05T18:17:01.786Z,6.33
2023-02-05T18:22:10.357Z,6.33
2023-02-05T18:27:14.405Z,8.80
2023-02-05T18:32:20.569Z,9.67
2023-02-05T18:37:25.081Z,9.63
2023-02-05T18:42:36.789Z,7.13
2023-02-05T18:47:41.617Z,8.47
2023-02-05T18:53:01.440Z,8.87
2023-02-05T18:58:06.625Z,8.50
2023-02-05T19:03:12.341Z,9.03
2023-02-05T19:08:22.186Z,10.53
2023-02-05T19:13:34.399Z,10.63
2023-02-05T19:18:38.364Z,9.50
2023-02-05T19:23:41.417Z,8.83
2023-02-05T19:28:47.526Z,8.93
2023-02-05T19:34:01.079Z,8.97
2023-02-05T19:39:05.823Z,10.13
2023-02-05T19:44:21.171Z,10.13
2023-02-05T19:49:24.967Z,12.13
2023-02-05T19:54:31.801Z,11.10
2023-02-05T19:59:35.801Z,11.57
2023-02-05T20:04:41.649Z,9.77
2023-02-05T20:09:44.819Z,10.70
2023-02-05T20:14:49.004Z,10.00
2023-02-05T20:19:55.156Z,9.40
2023-02-05T20:24:59.999Z,9.83
2023-02-05T20:30:22.001Z,9.47
2023-02-05T20:35:24.882Z,8.50
2023-02-05T20:40:27.626Z,9.77
2023-02-05T20:45:33.754Z,10.20
2023-02-05T20:50:36.924Z,11.60
2023-02-05T20:55:39.703Z,9.60
2023-02-05T21:00:43.713Z,10.20
2023-02-05T21:05:46.463Z,10.03
2023-02-05T21:10:49.131Z,9.60
2023-02-05T21:15:58.193Z,9.20
2023-02-05T21:21:07.684Z,9.20
2023-02-05T21:26:19.292Z,9.13
2023-02-05T21:31:24.679Z,9.83
2023-02-05T21:36:28.907Z,10.00
2023-02-05T21:41:32.014Z,9.73
2023-02-05T21:46:36.018Z,10.63
2023-02-05T21:51:38.669Z,9.43
2023-02-05T21:56:43.835Z,10.30
2023-02-05T22:01:47.837Z,9.83
2023-02-05T22:06:51.276Z,11.73
2023-02-05T22:11:54.445Z,9.80
2023-02-05T22:16:58.460Z,9.27
2023-02-05T22:22:01.154Z,9.17
2023-02-05T22:27:03.799Z,8.57
2023-02-05T22:32:07.889Z,9.50
2023-02-05T22:37:10.566Z,9.27
2023-02-05T22:42:13.210Z,8.60
2023-02-05T22:47:17.201Z,7.77
2023-02-05T22:52:19.859Z,8.30
2023-02-05T22:57:22.537Z,7.83
2023-02-05T23:02:26.623Z,7.30
2023-02-05T23:07:29.469Z,7.40
2023-02-05T23:12:32.091Z,7.17
2023-02-05T23:17:37.836Z,7.77
2023-02-05T23:22:40.636Z,7.30
2023-02-05T23:27:43.311Z,7.27
2023-02-05T23:32:47.389Z,7.07
2023-02-05T23:37:50.066Z,8.03
2023-02-05T23:42:52.801Z,7.93
2023-02-05T23:47:57.386Z,7.23
2023-02-05T23:53:00.087Z,6.60
2023-02-05T23:58:03.154Z,7.17
